createdAt,value
2023-03-16T00:00:09.565Z,100343.09
2023-03-16T00:02:36.001Z,100349.19
2023-03-16T00:05:02.486Z,100350.03
2023-03-16T00:07:29.053Z,100359.59
2023-03-16T00:09:55.507Z,100355.34
2023-03-16T00:12:22.612Z,100351.81
2023-03-16T00:14:49.612Z,100360.44
2023-03-16T00:17:19.893Z,100345.75
2023-03-16T00:20:07.060Z,100348.28
2023-03-16T00:22:33.923Z,100348.31
2023-03-16T00:25:00.393Z,100348.44
2023-03-16T00:27:27.238Z,100352.72
2023-03-16T00:29:57.356Z,100346.69
2023-03-16T00:32:29.244Z,100340.66
2023-03-16T00:34:56.039Z,100335.47
2023-03-16T00:37:23.636Z,100342.38
2023-03-16T00:39:51.493Z,100330.31
2023-03-16T00:42:19.259Z,100337.19
2023-03-16T00:44:45.920Z,100331.13
2023-03-16T00:47:15.676Z,100324.16
2023-03-16T00:49:43.754Z,100330.19
2023-03-16T00:52:15.376Z,100328.44
2023-03-16T00:54:46.391Z,100321.50
2023-03-16T00:57:15.115Z,100321.53
2023-03-16T00:59:42.133Z,100316.38
2023-03-16T01:02:09.366Z,100321.50
2023-03-16T01:04:36.230Z,100319.78
2023-03-16T01:07:12.155Z,100312.09
2023-03-16T01:09:40.016Z,100316.41
2023-03-16T01:12:11.921Z,100314.69
2023-03-16T01:14:39.080Z,100316.38
2023-03-16T01:17:08.574Z,100312.88
2023-03-16T01:19:35.945Z,100321.47
2023-03-16T01:22:05.310Z,100317.16
2023-03-16T01:24:32.802Z,100311.22
2023-03-16T01:26:59.690Z,100310.38
2023-03-16T01:29:26.199Z,100313.81
2023-03-16T01:31:55.811Z,100306.00
2023-03-16T01:34:22.367Z,100307.75
2023-03-16T01:36:49.944Z,100316.47
2023-03-16T01:39:24.154Z,100318.22
2023-03-16T01:41:50.932Z,100294.94
2023-03-16T01:44:20.200Z,100304.44
2023-03-16T01:46:46.697Z,100300.00
2023-03-16T01:49:25.086Z,100287.19
2023-03-16T01:52:15.098Z,100294.03
2023-03-16T01:54:48.184Z,100286.25
2023-03-16T01:57:22.964Z,100274.19
2023-03-16T02:00:10.915Z,100269.72
2023-03-16T02:02:55.595Z,100271.50
2023-03-16T02:05:44.743Z,100290.56
2023-03-16T02:08:14.854Z,100286.22
2023-03-16T02:10:41.714Z,100283.72
2023-03-16T02:13:08.482Z,100280.22
2023-03-16T02:15:36.032Z,100274.19
2023-03-16T02:18:03.029Z,100272.44
2023-03-16T02:20:47.924Z,100275.03
2023-03-16T02:23:19.851Z,100271.59
2023-03-16T02:26:07.381Z,100261.19
2023-03-16T02:28:53.381Z,100278.59
2023-03-16T02:31:20.081Z,100267.56
2023-03-16T02:33:47.589Z,100280.63
2023-03-16T02:36:14.920Z,100287.63
2023-03-16T02:38:41.476Z,100276.41
2023-03-16T02:41:14.261Z,100274.81
2023-03-16T02:43:45.388Z,100273.16
2023-03-16T02:46:26.102Z,100254.31
2023-03-16T02:48:58.257Z,100265.59
2023-03-16T02:51:24.834Z,100255.31
2023-03-16T02:53:51.508Z,100247.56
2023-03-16T02:56:19.204Z,100243.31
2023-03-16T02:58:45.848Z,100233.75
2023-03-16T03:01:16.908Z,100246.69
2023-03-16T03:03:43.784Z,100238.00
2023-03-16T03:06:10.844Z,100231.88
2023-03-16T03:08:37.740Z,100231.84
2023-03-16T03:11:04.332Z,100217.94
2023-03-16T03:13:31.549Z,100228.28
2023-03-16T03:15:58.292Z,100223.00
2023-03-16T03:18:27.191Z,100222.91
2023-03-16T03:20:53.764Z,100220.06
2023-03-16T03:23:20.281Z,100214.75
2023-03-16T03:25:47.832Z,100209.31
2023-03-16T03:28:15.278Z,100213.66
2023-03-16T03:30:41.995Z,100216.97
2023-03-16T03:33:08.808Z,100217.81
2023-03-16T03:35:35.345Z,100221.25
2023-03-16T03:38:01.823Z,100206.53
2023-03-16T03:40:28.675Z,100207.34
2023-03-16T03:42:58.372Z,100209.19
2023-03-16T03:45:25.267Z,100211.75
2023-03-16T03:47:52.157Z,100219.47
2023-03-16T03:50:21.339Z,100212.53
2023-03-16T03:53:26.261Z,100214.34
2023-03-16T03:56:13.612Z,100202.44
2023-03-16T03:58:40.908Z,100201.78
2023-03-16T04:01:07.481Z,100201.06
2023-03-16T04:03:34.333Z,100201.97
2023-03-16T04:06:01.072Z,100209.84
2023-03-16T04:08:29.093Z,100209.03
2023-03-16T04:10:55.608Z,100207.44
2023-03-16T04:13:22.713Z,100214.50
2023-03-16T04:15:49.660Z,100215.50
2023-03-16T04:18:19.630Z,100228.63
2023-03-16T04:20:46.150Z,100226.97
2023-03-16T04:23:17.057Z,100202.00
2023-03-16T04:25:45.392Z,100222.66
2023-03-16T04:28:17.582Z,100221.75
2023-03-16T04:30:46.180Z,100217.44
2023-03-16T04:33:24.297Z,100213.06
2023-03-16T04:35:52.163Z,100209.56
2023-03-16T04:38:20.590Z,100195.69
2023-03-16T04:40:56.060Z,100210.41
2023-03-16T04:43:27.008Z,100196.53
2023-03-16T04:45:57.938Z,100201.69
2023-03-16T04:48:32.200Z,100207.75
2023-03-16T04:50:59.566Z,100203.41
2023-03-16T04:53:28.946Z,100196.63
2023-03-16T04:56:00.322Z,100194.81
2023-03-16T04:58:26.955Z,100199.09
2023-03-16T05:00:57.918Z,100184.31
2023-03-16T05:03:28.670Z,100188.59
2023-03-16T05:05:55.701Z,100172.94
2023-03-16T05:08:23.554Z,100179.88
2023-03-16T05:10:51.210Z,100179.81
2023-03-16T05:13:18.875Z,100188.44
2023-03-16T05:15:47.985Z,100191.88
2023-03-16T05:18:20.532Z,100198.69
2023-03-16T05:20:50.868Z,100213.34
2023-03-16T05:23:17.551Z,100206.28
2023-03-16T05:25:52.245Z,100204.50
2023-03-16T05:28:21.800Z,100207.03
2023-03-16T05:30:55.106Z,100189.72
2023-03-16T05:33:25.529Z,100196.56
2023-03-16T05:35:58.079Z,100199.03
2023-03-16T05:38:25.308Z,100201.63
2023-03-16T05:40:54.481Z,100182.53
2023-03-16T05:43:37.730Z,100179.00
2023-03-16T05:46:04.809Z,100185.88
2023-03-16T05:48:32.199Z,100184.97
2023-03-16T05:50:59.797Z,100194.56
2023-03-16T05:53:29.366Z,100177.31
2023-03-16T05:56:02.603Z,100179.00
2023-03-16T05:58:33.815Z,100172.75
2023-03-16T06:01:04.799Z,100168.53
2023-03-16T06:03:31.605Z,100170.16
2023-03-16T06:05:59.411Z,100180.50
2023-03-16T06:08:30.731Z,100169.22
2023-03-16T06:11:06.000Z,100172.44
2023-03-16T06:13:32.985Z,100162.72
2023-03-16T06:15:59.681Z,100160.81
2023-03-16T06:18:26.667Z,100156.28
2023-03-16T06:20:53.164Z,100151.81
2023-03-16T06:23:21.402Z,100157.75
2023-03-16T06:25:48.856Z,100162.84
2023-03-16T06:28:16.551Z,100160.22
2023-03-16T06:30:43.038Z,100163.59
2023-03-16T06:33:09.785Z,100180.19
2023-03-16T06:35:36.349Z,100176.78
2023-03-16T06:38:11.524Z,100172.34
2023-03-16T06:40:53.790Z,100178.31
2023-03-16T06:43:21.245Z,100179.94
2023-03-16T06:45:47.868Z,100176.38
2023-03-16T06:48:14.635Z,100177.97
2023-03-16T06:50:41.119Z,100183.97
2023-03-16T06:53:07.975Z,100189.88
2023-03-16T06:55:36.400Z,100197.53
2023-03-16T06:58:02.945Z,100181.84
2023-03-16T07:00:30.730Z,100187.66
2023-03-16T07:02:59.466Z,100186.63
2023-03-16T07:05:28.061Z,100177.69
2023-03-16T07:07:54.744Z,100180.97
2023-03-16T07:10:21.669Z,100185.16
2023-03-16T07:12:48.117Z,100181.41
2023-03-16T07:15:14.662Z,100177.75
2023-03-16T07:17:42.419Z,100180.19
2023-03-16T07:20:10.877Z,100179.19
2023-03-16T07:22:39.426Z,100182.50
2023-03-16T07:25:08.479Z,100179.75
2023-03-16T07:27:34.961Z,100169.22
2023-03-16T07:30:06.511Z,100175.94
2023-03-16T07:32:36.731Z,100174.88
2023-03-16T07:35:03.851Z,100172.00
2023-03-16T07:37:34.217Z,100172.84
2023-03-16T07:40:03.508Z,100174.38
2023-03-16T07:42:29.981Z,100182.16
2023-03-16T07:45:05.895Z,100183.00
2023-03-16T07:47:33.753Z,100186.38
2023-03-16T07:50:08.742Z,100187.22
2023-03-16T07:52:37.513Z,100187.13
2023-03-16T07:55:05.340Z,100185.47
2023-03-16T07:57:32.464Z,100183.75
2023-03-16T07:59:59.547Z,100183.66
2023-03-16T08:02:26.416Z,100175.75
2023-03-16T08:04:53.982Z,100181.78
2023-03-16T08:07:20.432Z,100168.78
2023-03-16T08:09:52.800Z,100171.28
2023-03-16T08:12:24.822Z,100174.78
2023-03-16T08:14:51.460Z,100173.88
2023-03-16T08:17:23.937Z,100174.66
2023-03-16T08:19:51.164Z,100183.16
2023-03-16T08:22:20.936Z,100171.75
2023-03-16T08:24:48.977Z,100167.97
2023-03-16T08:27:17.670Z,100175.72
2023-03-16T08:29:52.721Z,100173.66
2023-03-16T08:32:22.180Z,100178.66
2023-03-16T08:34:48.720Z,100172.47
2023-03-16T08:37:16.271Z,100169.72
2023-03-16T08:39:45.386Z,100179.16
2023-03-16T08:42:16.689Z,100168.56
2023-03-16T08:44:47.729Z,100168.28
2023-03-16T08:47:14.866Z,100158.47
2023-03-16T08:49:44.714Z,100161.56
2023-03-16T08:52:13.956Z,100154.25
2023-03-16T08:54:47.162Z,100160.16
2023-03-16T08:57:19.352Z,100158.09
2023-03-16T08:59:46.023Z,100156.78
2023-03-16T09:02:16.621Z,100163.38
2023-03-16T09:04:43.354Z,100158.59
2023-03-16T09:07:10.201Z,100157.25
2023-03-16T09:09:37.057Z,100153.50
2023-03-16T09:12:04.275Z,100155.66
2023-03-16T09:14:30.749Z,100153.47
2023-03-16T09:16:57.253Z,100150.22
2023-03-16T09:19:24.982Z,100145.25
2023-03-16T09:21:51.456Z,100142.13
2023-03-16T09:24:17.880Z,100146.75
2023-03-16T09:26:45.120Z,100153.13
2023-03-16T09:29:11.941Z,100144.75
2023-03-16T09:31:38.705Z,100142.34
2023-03-16T09:34:05.669Z,100146.09
2023-03-16T09:36:33.507Z,100143.69
2023-03-16T09:39:00.225Z,100135.06
2023-03-16T09:41:41.718Z,100136.19
2023-03-16T09:44:17.283Z,100136.50
2023-03-16T09:46:45.549Z,100126.53
2023-03-16T09:49:16.555Z,100132.00
2023-03-16T09:52:15.713Z,100128.13
2023-03-16T09:54:49.464Z,100124.09
2023-03-16T09:57:31.260Z,100122.69
2023-03-16T10:00:05.887Z,100126.78
2023-03-16T10:02:47.237Z,100120.78
2023-03-16T10:05:16.952Z,100124.31
2023-03-16T10:07:53.175Z,100129.28
2023-03-16T10:10:27.088Z,100114.16
2023-03-16T10:12:54.879Z,100121.94
2023-03-16T10:15:24.535Z,100114.25
2023-03-16T10:18:01.208Z,100115.19
2023-03-16T10:20:33.091Z,100103.03
2023-03-16T10:23:02.040Z,100107.22
2023-03-16T10:25:45.340Z,100106.97
2023-03-16T10:28:23.304Z,100112.94
2023-03-16T10:30:51.847Z,100112.78
2023-03-16T10:33:28.886Z,100110.09
2023-03-16T10:36:31.252Z,100104.53
2023-03-16T10:39:06.148Z,100100.72
2023-03-16T10:41:35.459Z,100098.69
2023-03-16T10:44:07.533Z,100112.06
2023-03-16T10:46:41.075Z,100109.13
2023-03-16T10:49:23.155Z,100110.66
2023-03-16T10:51:49.814Z,100101.53
2023-03-16T10:54:31.579Z,100105.38
2023-03-16T10:56:59.030Z,100101.41
2023-03-16T10:59:34.264Z,100098.34
2023-03-16T11:02:03.748Z,100100.38
2023-03-16T11:04:33.822Z,100094.78
2023-03-16T11:07:00.447Z,100094.34
2023-03-16T11:09:32.974Z,100082.47
2023-03-16T11:12:00.619Z,100084.56
2023-03-16T11:14:28.318Z,100077.00
2023-03-16T11:17:14.599Z,100078.53
2023-03-16T11:19:50.386Z,100074.13
2023-03-16T11:22:19.908Z,100062.63
2023-03-16T11:24:49.100Z,100063.78
2023-03-16T11:27:26.350Z,100060.13
2023-03-16T11:30:05.378Z,100062.59
2023-03-16T11:32:37.982Z,100062.31
2023-03-16T11:35:19.532Z,100056.63
2023-03-16T11:37:53.963Z,100056.94
2023-03-16T11:40:33.091Z,100046.38
2023-03-16T11:43:33.813Z,100063.38
2023-03-16T11:46:12.487Z,100058.16
2023-03-16T11:49:00.234Z,100046.25
2023-03-16T11:51:36.807Z,100048.28
2023-03-16T11:54:30.807Z,100046.88
2023-03-16T11:57:07.181Z,100043.84
2023-03-16T12:00:02.391Z,100024.97
2023-03-16T12:02:50.309Z,100029.03
2023-03-16T12:05:31.304Z,100023.34
2023-03-16T12:08:07.172Z,100013.06
2023-03-16T12:10:45.735Z,100015.59
2023-03-16T12:13:30.460Z,100004.31
2023-03-16T12:16:01.771Z,99991.22
2023-03-16T12:18:51.588Z,100004.69
2023-03-16T12:21:24.348Z,99990.00
2023-03-16T12:23:56.502Z,99994.50
2023-03-16T12:26:29.735Z,99998.06
2023-03-16T12:28:57.290Z,99991.59
2023-03-16T12:31:39.110Z,99991.00
2023-03-16T12:34:30.739Z,99987.00
2023-03-16T12:37:14.117Z,99982.00
2023-03-16T12:39:53.208Z,99990.34
2023-03-16T12:42:43.025Z,99989.69
2023-03-16T12:45:31.720Z,99997.88
2023-03-16T12:48:01.207Z,99983.88
2023-03-16T12:50:27.720Z,99972.47
2023-03-16T12:52:54.474Z,99972.34
2023-03-16T12:55:39.539Z,99975.00
2023-03-16T12:58:08.461Z,99967.25
2023-03-16T13:00:40.502Z,99965.19
2023-03-16T13:03:15.358Z,99963.19
2023-03-16T13:05:54.164Z,99939.88
2023-03-16T13:08:22.792Z,99943.03
2023-03-16T13:11:07.453Z,99943.03
2023-03-16T13:13:34.133Z,99939.25
2023-03-16T13:16:10.010Z,99942.09
2023-03-16T13:18:40.162Z,99931.34
2023-03-16T13:21:36.304Z,99934.75
2023-03-16T13:24:36.766Z,99940.34
2023-03-16T13:27:06.874Z,99932.28
2023-03-16T13:29:33.924Z,99927.88
2023-03-16T13:32:02.728Z,99922.16
2023-03-16T13:34:38.183Z,99931.97
2023-03-16T13:37:14.483Z,99922.13
2023-03-16T13:39:41.666Z,99913.53
2023-03-16T13:42:08.047Z,99900.50
2023-03-16T13:44:34.837Z,99900.06
2023-03-16T13:47:05.477Z,99910.63
2023-03-16T13:49:32.000Z,99899.06
2023-03-16T13:51:58.810Z,99904.03
2023-03-16T13:54:28.163Z,99896.59
2023-03-16T13:56:58.545Z,99893.56
2023-03-16T13:59:25.800Z,99898.19
2023-03-16T14:02:01.658Z,99884.69
2023-03-16T14:04:30.559Z,99876.28
2023-03-16T14:06:59.046Z,99878.50
2023-03-16T14:09:28.677Z,99879.69
2023-03-16T14:11:57.617Z,99869.19
2023-03-16T14:14:37.192Z,99873.63
2023-03-16T14:17:11.010Z,99875.78
2023-03-16T14:19:44.284Z,99875.72
2023-03-16T14:22:13.669Z,99873.19
2023-03-16T14:24:41.063Z,99876.09
2023-03-16T14:27:37.404Z,99868.97
2023-03-16T14:30:15.339Z,99873.03
2023-03-16T14:32:42.256Z,99864.88
2023-03-16T14:35:15.744Z,99859.69
2023-03-16T14:37:43.251Z,99848.09
2023-03-16T14:40:31.804Z,99858.38
2023-03-16T14:43:00.683Z,99851.16
2023-03-16T14:45:31.618Z,99849.97
2023-03-16T14:48:03.438Z,99849.59
2023-03-16T14:50:29.931Z,99844.47
2023-03-16T14:52:57.252Z,99836.06
2023-03-16T14:55:24.835Z,99839.66
2023-03-16T14:57:51.560Z,99834.75
2023-03-16T15:00:20.182Z,99835.59
2023-03-16T15:02:59.688Z,99825.72
2023-03-16T15:05:31.741Z,99827.28
2023-03-16T15:07:58.498Z,99826.00
2023-03-16T15:10:29.128Z,99821.91
2023-03-16T15:13:04.187Z,99825.16
2023-03-16T15:15:31.524Z,99827.72
2023-03-16T15:17:59.097Z,99824.59
2023-03-16T15:20:31.581Z,99813.03
2023-03-16T15:22:58.764Z,99820.28
2023-03-16T15:25:39.690Z,99816.63
2023-03-16T15:28:18.915Z,99815.94
2023-03-16T15:30:45.846Z,99811.66
2023-03-16T15:33:12.737Z,99813.47
2023-03-16T15:35:40.043Z,99804.41
2023-03-16T15:38:24.171Z,99808.59
2023-03-16T15:40:51.355Z,99814.22
2023-03-16T15:43:19.893Z,99822.44
2023-03-16T15:45:47.208Z,99808.31
2023-03-16T15:48:14.445Z,99811.81
2023-03-16T15:50:44.308Z,99796.88
2023-03-16T15:53:29.976Z,99801.34
2023-03-16T15:56:05.825Z,99800.72
2023-03-16T15:58:34.218Z,99789.72
2023-03-16T16:01:02.704Z,99802.59
2023-03-16T16:03:29.870Z,99797.16
2023-03-16T16:05:56.358Z,99790.16
2023-03-16T16:08:22.765Z,99791.22
2023-03-16T16:10:50.087Z,99786.75
2023-03-16T16:13:37.338Z,99787.00
2023-03-16T16:16:16.609Z,99779.38
2023-03-16T16:18:43.488Z,99770.09
2023-03-16T16:21:19.230Z,99776.16
2023-03-16T16:23:46.372Z,99773.13
2023-03-16T16:26:34.344Z,99766.94
2023-03-16T16:29:13.178Z,99772.28
2023-03-16T16:31:39.650Z,99777.06
2023-03-16T16:34:14.342Z,99783.63
2023-03-16T16:36:41.260Z,99781.66
2023-03-16T16:39:08.247Z,99776.56
2023-03-16T16:41:35.900Z,99779.66
2023-03-16T16:44:08.087Z,99779.13
2023-03-16T16:46:42.371Z,99776.91
2023-03-16T16:49:24.092Z,99763.16
2023-03-16T16:51:52.149Z,99766.22
2023-03-16T16:54:23.515Z,99763.88
2023-03-16T16:56:52.531Z,99769.81
2023-03-16T16:59:21.588Z,99766.78
2023-03-16T17:01:51.694Z,99776.06
2023-03-16T17:04:25.831Z,99771.94
2023-03-16T17:06:55.314Z,99775.97
2023-03-16T17:09:23.176Z,99785.28
2023-03-16T17:11:50.812Z,99784.50
2023-03-16T17:14:19.379Z,99784.91
2023-03-16T17:16:51.521Z,99779.38
2023-03-16T17:19:26.943Z,99780.22
2023-03-16T17:21:55.456Z,99778.50
2023-03-16T17:24:22.672Z,99769.59
2023-03-16T17:26:52.201Z,99774.72
2023-03-16T17:29:25.491Z,99762.69
2023-03-16T17:31:52.153Z,99770.56
2023-03-16T17:34:21.966Z,99762.56
2023-03-16T17:36:48.613Z,99744.84
2023-03-16T17:39:25.207Z,99758.59
2023-03-16T17:41:56.157Z,99751.44
2023-03-16T17:44:22.628Z,99752.78
2023-03-16T17:46:49.171Z,99759.38
2023-03-16T17:49:18.133Z,99752.88
2023-03-16T17:51:45.493Z,99759.06
2023-03-16T17:54:12.488Z,99765.88
2023-03-16T17:56:40.202Z,99758.03
2023-03-16T17:59:15.122Z,99746.28
2023-03-16T18:01:44.030Z,99738.19
2023-03-16T18:04:21.957Z,99739.47
2023-03-16T18:06:49.051Z,99748.69
2023-03-16T18:09:20.367Z,99738.91
2023-03-16T18:11:48.893Z,99735.50
2023-03-16T18:14:44.570Z,99727.84
2023-03-16T18:17:10.933Z,99722.78
2023-03-16T18:19:37.654Z,99721.38
2023-03-16T18:22:04.984Z,99722.66
2023-03-16T18:24:31.582Z,99720.38
2023-03-16T18:26:57.993Z,99715.97
2023-03-16T18:29:24.508Z,99715.97
2023-03-16T18:31:52.855Z,99713.41
2023-03-16T18:34:21.462Z,99715.88
2023-03-16T18:36:47.878Z,99707.22
2023-03-16T18:39:20.423Z,99703.75
2023-03-16T18:41:46.898Z,99704.41
2023-03-16T18:44:25.672Z,99707.97
2023-03-16T18:46:54.279Z,99703.91
2023-03-16T18:49:27.493Z,99710.03
2023-03-16T18:51:54.484Z,99700.59
2023-03-16T18:54:26.120Z,99693.72
2023-03-16T18:56:53.851Z,99704.19
2023-03-16T18:59:21.112Z,99696.81
2023-03-16T19:01:47.732Z,99690.72
2023-03-16T19:04:25.797Z,99697.00
2023-03-16T19:06:54.094Z,99693.34
2023-03-16T19:09:23.060Z,99684.78
2023-03-16T19:11:50.206Z,99695.16
2023-03-16T19:14:19.263Z,99692.56
2023-03-16T19:16:45.965Z,99699.97
2023-03-16T19:19:13.127Z,99702.16
2023-03-16T19:21:39.640Z,99694.16
2023-03-16T19:24:06.873Z,99689.47
2023-03-16T19:26:34.802Z,99688.69
2023-03-16T19:29:02.312Z,99679.19
2023-03-16T19:31:31.242Z,99691.31
2023-03-16T19:33:58.468Z,99689.47
2023-03-16T19:36:27.945Z,99684.19
2023-03-16T19:38:54.610Z,99678.16
2023-03-16T19:41:24.133Z,99680.78
2023-03-16T19:43:51.471Z,99674.03
2023-03-16T19:46:17.956Z,99676.56
2023-03-16T19:48:44.891Z,99673.25
2023-03-16T19:51:15.900Z,99677.78
2023-03-16T19:53:42.460Z,99667.69
2023-03-16T19:56:13.871Z,99679.06
2023-03-16T19:58:41.593Z,99684.16
2023-03-16T20:01:32.535Z,99682.19
2023-03-16T20:03:59.502Z,99682.69
2023-03-16T20:06:26.218Z,99674.69
2023-03-16T20:08:52.731Z,99666.78
2023-03-16T20:11:26.034Z,99667.16
2023-03-16T20:13:52.918Z,99661.13
2023-03-16T20:16:23.655Z,99649.09
2023-03-16T20:18:53.775Z,99648.41
2023-03-16T20:21:20.804Z,99664.41
2023-03-16T20:23:47.368Z,99648.28
2023-03-16T20:26:33.020Z,99651.78
2023-03-16T20:29:00.847Z,99652.97
2023-03-16T20:31:31.223Z,99654.09
2023-03-16T20:33:58.224Z,99655.22
2023-03-16T20:36:25.769Z,99650.56
2023-03-16T20:38:52.229Z,99643.28
2023-03-16T20:41:24.503Z,99648.06
2023-03-16T20:43:51.650Z,99652.78
2023-03-16T20:46:22.340Z,99660.88
2023-03-16T20:48:48.873Z,99651.56
2023-03-16T20:51:16.250Z,99644.09
2023-03-16T20:53:44.275Z,99647.66
2023-03-16T20:56:21.140Z,99648.66
2023-03-16T20:58:49.808Z,99642.13
2023-03-16T21:01:20.541Z,99648.41
2023-03-16T21:03:54.265Z,99645.94
2023-03-16T21:06:27.190Z,99638.38
2023-03-16T21:08:55.355Z,99647.81
2023-03-16T21:11:25.325Z,99648.84
2023-03-16T21:13:53.613Z,99648.97
2023-03-16T21:16:20.704Z,99648.28
2023-03-16T21:18:48.523Z,99644.97
2023-03-16T21:21:17.386Z,99650.16
2023-03-16T21:23:44.221Z,99646.75
2023-03-16T21:26:16.327Z,99641.75
2023-03-16T21:28:43.684Z,99646.06
2023-03-16T21:31:16.465Z,99637.34
2023-03-16T21:33:45.523Z,99637.56
2023-03-16T21:36:15.260Z,99648.09
2023-03-16T21:38:41.897Z,99635.97
2023-03-16T21:41:08.355Z,99635.38
2023-03-16T21:43:34.855Z,99645.03
2023-03-16T21:46:02.927Z,99640.81
2023-03-16T21:48:36.561Z,99646.06
2023-03-16T21:51:03.083Z,99632.91
2023-03-16T21:53:33.247Z,99645.97
2023-03-16T21:56:00.129Z,99642.31
2023-03-16T21:58:27.224Z,99620.81
2023-03-16T22:00:54.863Z,99634.34
2023-03-16T22:03:29.591Z,99639.59
2023-03-16T22:06:00.035Z,99625.72
2023-03-16T22:08:29.229Z,99626.47
2023-03-16T22:10:56.770Z,99621.56
2023-03-16T22:13:23.981Z,99634.53
2023-03-16T22:15:54.312Z,99627.75
2023-03-16T22:18:35.903Z,99626.88
2023-03-16T22:21:11.107Z,99625.22
2023-03-16T22:23:37.631Z,99613.09
2023-03-16T22:26:05.538Z,99610.28
2023-03-16T22:28:32.882Z,99598.00
2023-03-16T22:31:01.632Z,99602.41
2023-03-16T22:33:29.965Z,99590.13
2023-03-16T22:36:11.713Z,99591.06
2023-03-16T22:38:39.405Z,99595.38
2023-03-16T22:41:06.646Z,99596.94
2023-03-16T22:43:38.303Z,99594.34
2023-03-16T22:46:04.876Z,99590.81
2023-03-16T22:48:31.565Z,99596.25
2023-03-16T22:51:00.883Z,99605.03
2023-03-16T22:53:37.861Z,99591.81
2023-03-16T22:56:05.575Z,99586.84
2023-03-16T22:58:51.595Z,99589.38
2023-03-16T23:01:27.979Z,99573.53
2023-03-16T23:03:54.737Z,99582.94
2023-03-16T23:06:23.666Z,99577.53
2023-03-16T23:08:50.679Z,99573.94
2023-03-16T23:11:27.810Z,99566.16
2023-03-16T23:13:54.848Z,99569.63
2023-03-16T23:16:27.428Z,99571.31
2023-03-16T23:18:54.260Z,99564.28
2023-03-16T23:21:22.660Z,99563.44
2023-03-16T23:24:02.671Z,99559.78
2023-03-16T23:26:30.704Z,99570.38
2023-03-16T23:28:57.498Z,99566.00
2023-03-16T23:31:25.846Z,99580.75
2023-03-16T23:33:52.710Z,99575.53
2023-03-16T23:36:22.165Z,99567.75
2023-03-16T23:38:49.235Z,99560.81
2023-03-16T23:41:19.238Z,99556.50
2023-03-16T23:43:46.277Z,99558.19
2023-03-16T23:46:18.883Z,99561.75
2023-03-16T23:48:46.770Z,99560.06
2023-03-16T23:51:21.251Z,99566.84
2023-03-16T23:53:48.515Z,99551.91
2023-03-16T23:56:15.352Z,99562.34
2023-03-16T23:58:41.893Z,99563.88
